createdAt,value
2023-01-19T00:00:59.608Z,6.10
2023-01-19T00:03:29.717Z,6.07
2023-01-19T00:05:56.676Z,6.28
2023-01-19T00:08:23.540Z,6.37
2023-01-19T00:10:51.039Z,6.36
2023-01-19T00:13:18.147Z,6.40
2023-01-19T00:15:45.291Z,6.36
2023-01-19T00:18:12.148Z,5.91
2023-01-19T00:20:39.997Z,5.81
2023-01-19T00:23:07.463Z,6.05
2023-01-19T00:25:34.787Z,6.17
2023-01-19T00:28:01.995Z,6.19
2023-01-19T00:30:29.401Z,6.24
2023-01-19T00:32:56.472Z,6.19
2023-01-19T00:35:23.383Z,6.09
2023-01-19T00:37:50.422Z,6.09
2023-01-19T00:40:17.958Z,6.12
2023-01-19T00:42:44.904Z,6.00
2023-01-19T00:45:14.783Z,6.07
2023-01-19T00:47:42.503Z,5.86
2023-01-19T00:50:11.592Z,5.60
2023-01-19T00:52:39.936Z,5.61
2023-01-19T00:55:12.278Z,5.54
2023-01-19T00:57:39.771Z,5.71
2023-01-19T01:00:09.882Z,5.74
2023-01-19T01:02:37.012Z,5.89
2023-01-19T01:05:05.070Z,5.97
2023-01-19T01:07:33.742Z,5.95
2023-01-19T01:10:01.045Z,5.89
2023-01-19T01:12:28.004Z,5.89
2023-01-19T01:14:54.859Z,5.86
2023-01-19T01:17:21.740Z,5.79
2023-01-19T01:19:48.682Z,5.86
2023-01-19T01:22:15.703Z,5.91
2023-01-19T01:24:42.665Z,5.96
2023-01-19T01:27:09.569Z,5.86
2023-01-19T01:29:36.458Z,5.97
2023-01-19T01:32:06.102Z,5.97
2023-01-19T01:34:33.037Z,5.92
2023-01-19T01:36:59.882Z,5.89
2023-01-19T01:39:29.459Z,5.86
2023-01-19T01:41:56.318Z,5.83
2023-01-19T01:44:50.621Z,5.60
2023-01-19T01:47:39.888Z,5.37
2023-01-19T01:50:09.479Z,5.57
2023-01-19T01:52:42.927Z,5.67
2023-01-19T01:55:32.614Z,5.64
2023-01-19T01:58:04.144Z,5.71
2023-01-19T02:00:31.675Z,5.77
2023-01-19T02:02:58.983Z,5.67
2023-01-19T02:05:33.467Z,5.67
2023-01-19T02:08:16.961Z,5.66
2023-01-19T02:10:44.599Z,5.63
2023-01-19T02:13:12.888Z,5.66
2023-01-19T02:15:39.770Z,5.31
2023-01-19T02:18:06.751Z,4.87
2023-01-19T02:20:36.866Z,4.93
2023-01-19T02:23:13.554Z,4.90
2023-01-19T02:25:40.498Z,4.45
2023-01-19T02:28:08.079Z,4.51
2023-01-19T02:30:38.177Z,4.59
2023-01-19T02:33:05.217Z,4.69
2023-01-19T02:35:32.999Z,4.79
2023-01-19T02:38:01.452Z,4.82
2023-01-19T02:40:28.793Z,4.94
2023-01-19T02:42:59.649Z,5.03
2023-01-19T02:45:27.524Z,5.07
2023-01-19T02:47:54.967Z,5.10
2023-01-19T02:51:00.034Z,4.87
2023-01-19T02:53:32.806Z,4.51
2023-01-19T02:56:23.681Z,4.15
2023-01-19T02:59:01.592Z,4.32
2023-01-19T03:01:56.421Z,4.36
2023-01-19T03:04:41.662Z,4.47
2023-01-19T03:07:11.731Z,4.28
2023-01-19T03:09:49.861Z,3.91
2023-01-19T03:12:25.837Z,3.45
2023-01-19T03:14:55.947Z,3.67
2023-01-19T03:17:23.096Z,3.87
2023-01-19T03:19:52.993Z,4.01
2023-01-19T03:22:25.291Z,3.99
2023-01-19T03:24:54.724Z,4.03
2023-01-19T03:27:29.429Z,4.17
2023-01-19T03:30:01.138Z,4.22
2023-01-19T03:32:57.069Z,4.25
2023-01-19T03:35:26.715Z,3.55
2023-01-19T03:37:56.675Z,2.88
2023-01-19T03:40:27.154Z,2.52
2023-01-19T03:42:54.934Z,2.48
2023-01-19T03:45:23.111Z,2.47
2023-01-19T03:47:50.396Z,2.50
2023-01-19T03:50:35.613Z,2.67
2023-01-19T03:53:07.207Z,3.03
2023-01-19T03:55:36.201Z,3.20
2023-01-19T03:58:03.014Z,3.11
2023-01-19T04:00:29.908Z,3.16
2023-01-19T04:02:56.967Z,3.14
2023-01-19T04:05:24.401Z,3.29
2023-01-19T04:07:53.698Z,3.26
2023-01-19T04:10:21.290Z,3.30
2023-01-19T04:12:49.021Z,3.35
2023-01-19T04:15:16.587Z,3.37
2023-01-19T04:17:43.551Z,3.40
2023-01-19T04:20:10.952Z,3.45
2023-01-19T04:22:37.796Z,3.51
2023-01-19T04:25:05.341Z,3.50
2023-01-19T04:27:32.360Z,3.53
2023-01-19T04:29:59.272Z,3.59
2023-01-19T04:32:26.429Z,3.72
2023-01-19T04:34:53.382Z,3.78
2023-01-19T04:37:20.248Z,3.83
2023-01-19T04:39:47.148Z,3.78
2023-01-19T04:42:14.086Z,3.83
2023-01-19T04:44:40.908Z,3.88
2023-01-19T04:47:07.881Z,3.93
2023-01-19T04:49:34.827Z,3.97
2023-01-19T04:52:01.701Z,4.10
2023-01-19T04:54:28.687Z,4.12
2023-01-19T04:56:55.574Z,3.80
2023-01-19T04:59:22.511Z,3.91
2023-01-19T05:01:49.467Z,4.02
2023-01-19T05:04:16.619Z,4.10
2023-01-19T05:06:43.545Z,4.22
2023-01-19T05:09:11.910Z,4.26
2023-01-19T05:11:39.010Z,4.35
2023-01-19T05:14:06.065Z,4.42
2023-01-19T05:16:33.934Z,4.54
2023-01-19T05:19:01.029Z,4.86
2023-01-19T05:21:28.011Z,5.24
2023-01-19T05:23:54.867Z,5.54
2023-01-19T05:26:21.898Z,5.63
2023-01-19T05:28:48.842Z,5.88
2023-01-19T05:31:18.676Z,6.01
2023-01-19T05:33:46.455Z,5.97
2023-01-19T05:36:13.288Z,6.05
2023-01-19T05:38:40.185Z,5.88
2023-01-19T05:41:07.088Z,6.07
2023-01-19T05:43:33.989Z,6.02
2023-01-19T05:46:01.056Z,6.02
2023-01-19T05:48:28.036Z,6.11
2023-01-19T05:50:58.620Z,6.08
2023-01-19T05:53:25.582Z,5.88
2023-01-19T05:55:52.591Z,5.67
2023-01-19T05:58:19.542Z,5.68
2023-01-19T06:00:46.387Z,5.80
2023-01-19T06:03:13.307Z,5.68
2023-01-19T06:05:40.283Z,5.70
2023-01-19T06:08:07.215Z,5.57
2023-01-19T06:10:34.074Z,5.69
2023-01-19T06:13:01.194Z,5.90
2023-01-19T06:15:28.432Z,6.25
2023-01-19T06:17:55.308Z,6.54
2023-01-19T06:20:22.270Z,6.77
2023-01-19T06:22:49.350Z,7.04
2023-01-19T06:25:16.238Z,7.24
2023-01-19T06:27:45.871Z,7.13
2023-01-19T06:30:13.748Z,6.58
2023-01-19T06:32:40.624Z,6.10
2023-01-19T06:35:07.736Z,5.88
2023-01-19T06:37:34.921Z,6.04
2023-01-19T06:40:01.929Z,6.36
2023-01-19T06:42:28.886Z,6.77
2023-01-19T06:44:55.903Z,7.06
2023-01-19T06:47:22.877Z,7.26
2023-01-19T06:49:49.805Z,7.24
2023-01-19T06:52:17.106Z,7.43
2023-01-19T06:54:47.360Z,7.55
2023-01-19T06:57:14.942Z,7.31
2023-01-19T06:59:41.997Z,7.32
2023-01-19T07:02:26.441Z,7.44
2023-01-19T07:04:56.335Z,6.94
2023-01-19T07:07:23.323Z,6.95
2023-01-19T07:09:50.192Z,7.09
2023-01-19T07:12:21.075Z,7.11
2023-01-19T07:14:50.237Z,7.20
2023-01-19T07:17:17.490Z,6.96
2023-01-19T07:19:44.620Z,6.57
2023-01-19T07:22:11.554Z,6.06
2023-01-19T07:24:38.432Z,5.86
2023-01-19T07:27:05.351Z,5.85
2023-01-19T07:29:32.308Z,5.85
2023-01-19T07:31:59.222Z,5.85
2023-01-19T07:34:26.044Z,6.02
2023-01-19T07:36:52.943Z,6.13
2023-01-19T07:39:19.771Z,6.23
2023-01-19T07:41:48.548Z,6.48
2023-01-19T07:44:15.717Z,6.72
2023-01-19T07:46:42.620Z,6.78
2023-01-19T07:49:09.647Z,6.89
2023-01-19T07:51:36.691Z,7.01
2023-01-19T07:54:03.616Z,6.90
2023-01-19T07:56:32.614Z,6.71
2023-01-19T07:58:59.772Z,6.67
2023-01-19T08:01:26.665Z,6.75
2023-01-19T08:03:53.642Z,6.79
2023-01-19T08:06:23.596Z,6.93
2023-01-19T08:08:50.953Z,7.01
2023-01-19T08:11:17.931Z,7.29
2023-01-19T08:13:44.797Z,7.22
2023-01-19T08:16:11.804Z,7.46
2023-01-19T08:18:38.696Z,7.50
2023-01-19T08:21:06.250Z,7.45
2023-01-19T08:23:33.177Z,7.60
2023-01-19T08:26:00.143Z,7.94
2023-01-19T08:28:27.149Z,8.19
2023-01-19T08:30:54.291Z,8.19
2023-01-19T08:33:22.992Z,8.32
2023-01-19T08:35:52.927Z,8.21
2023-01-19T08:38:19.975Z,8.18
2023-01-19T08:40:47.128Z,8.39
2023-01-19T08:43:16.291Z,8.46
2023-01-19T08:45:46.675Z,8.45
2023-01-19T08:48:13.906Z,8.46
2023-01-19T08:50:41.044Z,8.69
2023-01-19T08:53:08.407Z,8.75
2023-01-19T08:55:37.066Z,8.99
2023-01-19T08:58:05.063Z,8.88
2023-01-19T09:00:34.083Z,9.05
2023-01-19T09:03:02.319Z,9.17
2023-01-19T09:05:30.556Z,9.30
2023-01-19T09:07:57.471Z,8.88
2023-01-19T09:10:25.033Z,8.79
2023-01-19T09:12:51.910Z,9.05
2023-01-19T09:15:20.208Z,9.15
2023-01-19T09:17:47.064Z,9.53
2023-01-19T09:20:14.090Z,9.61
2023-01-19T09:22:40.957Z,9.67
2023-01-19T09:25:08.411Z,9.73
2023-01-19T09:27:35.578Z,9.84
2023-01-19T09:30:03.860Z,9.78
2023-01-19T09:32:30.786Z,9.71
2023-01-19T09:34:57.759Z,9.60
2023-01-19T09:37:24.658Z,9.63
2023-01-19T09:39:51.635Z,9.65
2023-01-19T09:42:31.369Z,9.60
2023-01-19T09:44:58.960Z,9.67
2023-01-19T09:47:29.896Z,9.83
2023-01-19T09:50:05.357Z,10.13
2023-01-19T09:52:36.443Z,10.35
2023-01-19T09:55:03.558Z,10.58
2023-01-19T09:57:31.310Z,10.52
2023-01-19T09:59:58.404Z,10.37
2023-01-19T10:02:39.534Z,10.78
2023-01-19T10:05:32.552Z,11.03
2023-01-19T10:08:14.543Z,11.19
2023-01-19T10:10:47.308Z,10.98
2023-01-19T10:13:35.819Z,11.00
2023-01-19T10:16:14.780Z,11.17
2023-01-19T10:18:46.871Z,11.34
2023-01-19T10:21:19.355Z,11.58
2023-01-19T10:24:13.497Z,11.94
2023-01-19T10:26:45.828Z,12.28
2023-01-19T10:29:39.099Z,11.95
2023-01-19T10:32:12.220Z,12.21
2023-01-19T10:34:39.403Z,12.09
2023-01-19T10:37:22.944Z,12.05
2023-01-19T10:39:55.602Z,11.96
2023-01-19T10:42:22.884Z,12.00
2023-01-19T10:44:50.031Z,11.84
2023-01-19T10:47:19.452Z,11.97
2023-01-19T10:49:48.315Z,11.98
2023-01-19T10:52:36.230Z,11.78
2023-01-19T10:55:06.119Z,11.71
2023-01-19T10:57:40.933Z,11.79
2023-01-19T11:00:38.307Z,11.80
2023-01-19T11:03:24.876Z,11.77
2023-01-19T11:05:52.076Z,11.81
2023-01-19T11:08:30.058Z,11.85
2023-01-19T11:11:03.401Z,11.88
2023-01-19T11:13:30.811Z,12.08
2023-01-19T11:16:14.403Z,12.08
2023-01-19T11:18:42.818Z,12.28
2023-01-19T11:21:13.461Z,12.43
2023-01-19T11:23:52.790Z,12.32
2023-01-19T11:26:40.054Z,11.90
2023-01-19T11:29:23.339Z,12.14
2023-01-19T11:31:51.745Z,11.87
2023-01-19T11:34:26.616Z,11.90
2023-01-19T11:37:23.850Z,12.13
2023-01-19T11:39:53.274Z,12.24
2023-01-19T11:42:20.833Z,12.49
2023-01-19T11:45:13.641Z,12.20
2023-01-19T11:47:44.459Z,12.19
2023-01-19T11:50:14.025Z,12.15
2023-01-19T11:52:50.998Z,12.20
2023-01-19T11:55:42.522Z,12.21
2023-01-19T11:58:15.961Z,12.35
2023-01-19T12:01:17.800Z,12.33
2023-01-19T12:03:49.224Z,12.29
2023-01-19T12:06:20.678Z,12.43
2023-01-19T12:08:53.785Z,12.44
2023-01-19T12:11:30.130Z,12.63
2023-01-19T12:13:57.480Z,12.79
2023-01-19T12:16:29.066Z,12.67
2023-01-19T12:19:00.613Z,12.84
2023-01-19T12:21:27.649Z,12.79
2023-01-19T12:24:15.952Z,12.53
2023-01-19T12:26:51.470Z,12.49
2023-01-19T12:29:21.543Z,12.31
2023-01-19T12:32:27.038Z,12.38
2023-01-19T12:34:53.939Z,12.24
2023-01-19T12:37:43.098Z,12.17
2023-01-19T12:40:27.045Z,11.90
2023-01-19T12:43:06.028Z,12.00
2023-01-19T12:45:37.567Z,11.97
2023-01-19T12:48:05.593Z,12.05
2023-01-19T12:50:39.106Z,12.02
2023-01-19T12:53:18.171Z,11.97
2023-01-19T12:55:45.734Z,12.03
2023-01-19T12:58:24.820Z,12.04
2023-01-19T13:01:19.211Z,11.90
2023-01-19T13:04:02.085Z,11.92
2023-01-19T13:06:47.397Z,11.86
2023-01-19T13:09:32.000Z,12.02
2023-01-19T13:12:15.757Z,12.31
2023-01-19T13:14:43.617Z,12.28
2023-01-19T13:17:33.449Z,12.00
2023-01-19T13:20:05.151Z,12.08
2023-01-19T13:22:47.074Z,12.18
2023-01-19T13:25:27.903Z,12.12
2023-01-19T13:27:55.277Z,11.98
2023-01-19T13:30:26.286Z,11.97
2023-01-19T13:32:56.997Z,11.93
2023-01-19T13:35:24.843Z,11.87
2023-01-19T13:37:52.491Z,11.62
2023-01-19T13:40:26.437Z,11.47
2023-01-19T13:42:54.675Z,11.42
2023-01-19T13:45:34.260Z,11.27
2023-01-19T13:48:05.536Z,11.26
2023-01-19T13:50:36.979Z,11.25
2023-01-19T13:53:04.020Z,11.19
2023-01-19T13:55:32.207Z,11.20
2023-01-19T13:57:59.189Z,11.22
2023-01-19T14:00:29.284Z,11.25
2023-01-19T14:03:17.061Z,11.15
2023-01-19T14:05:45.041Z,11.04
2023-01-19T14:08:15.705Z,10.88
2023-01-19T14:10:54.889Z,10.86
2023-01-19T14:13:24.215Z,10.78
2023-01-19T14:15:56.140Z,10.73
2023-01-19T14:18:26.995Z,10.68
2023-01-19T14:21:04.591Z,10.67
2023-01-19T14:23:54.566Z,10.76
2023-01-19T14:27:08.391Z,10.90
2023-01-19T14:29:36.778Z,11.07
2023-01-19T14:32:03.649Z,11.16
2023-01-19T14:34:55.447Z,11.23
2023-01-19T14:37:28.652Z,11.22
2023-01-19T14:40:01.147Z,11.20
2023-01-19T14:42:32.579Z,11.17
2023-01-19T14:45:02.300Z,11.14
2023-01-19T14:47:38.713Z,11.15
2023-01-19T14:50:23.384Z,10.88
2023-01-19T14:52:57.851Z,10.71
2023-01-19T14:55:33.995Z,10.47
2023-01-19T14:58:01.164Z,10.48
2023-01-19T15:00:28.734Z,10.54
2023-01-19T15:02:55.654Z,10.41
2023-01-19T15:05:23.537Z,10.36
2023-01-19T15:07:50.471Z,10.25
2023-01-19T15:10:22.122Z,10.33
2023-01-19T15:12:51.342Z,10.40
2023-01-19T15:15:41.026Z,10.42
2023-01-19T15:18:15.476Z,10.19
2023-01-19T15:20:42.376Z,10.13
2023-01-19T15:23:12.583Z,10.07
2023-01-19T15:25:40.041Z,9.85
2023-01-19T15:28:13.258Z,9.52
2023-01-19T15:30:40.353Z,9.39
2023-01-19T15:33:12.682Z,9.19
2023-01-19T15:35:39.552Z,9.03
2023-01-19T15:38:06.440Z,9.12
2023-01-19T15:40:33.355Z,9.23
2023-01-19T15:43:00.220Z,9.31
2023-01-19T15:45:38.178Z,9.41
2023-01-19T15:48:07.982Z,9.50
2023-01-19T15:50:47.497Z,9.58
2023-01-19T15:53:19.411Z,9.61
2023-01-19T15:55:53.065Z,9.58
2023-01-19T15:58:20.032Z,9.58
2023-01-19T16:00:54.714Z,9.58
2023-01-19T16:03:21.966Z,9.53
2023-01-19T16:05:49.065Z,9.63
2023-01-19T16:08:16.100Z,9.59
2023-01-19T16:10:43.422Z,9.55
2023-01-19T16:13:11.794Z,9.51
2023-01-19T16:15:40.238Z,9.51
2023-01-19T16:18:07.226Z,9.49
2023-01-19T16:20:34.486Z,9.49
2023-01-19T16:23:16.518Z,9.41
2023-01-19T16:25:43.639Z,9.30
2023-01-19T16:28:10.562Z,8.93
2023-01-19T16:30:37.523Z,8.85
2023-01-19T16:33:04.484Z,8.55
2023-01-19T16:35:31.517Z,8.45
2023-01-19T16:37:58.347Z,8.48
2023-01-19T16:40:26.477Z,8.62
2023-01-19T16:42:53.306Z,8.41
2023-01-19T16:45:20.249Z,8.41
2023-01-19T16:47:47.176Z,8.39
2023-01-19T16:50:13.987Z,8.44
2023-01-19T16:52:40.969Z,8.50
2023-01-19T16:55:14.592Z,8.41
2023-01-19T16:57:41.770Z,8.35
2023-01-19T17:00:09.918Z,8.24
2023-01-19T17:02:37.157Z,8.22
2023-01-19T17:05:04.691Z,8.17
2023-01-19T17:07:34.204Z,8.08
2023-01-19T17:10:01.187Z,8.11
2023-01-19T17:13:01.275Z,8.17
2023-01-19T17:15:28.421Z,8.20
2023-01-19T17:17:55.239Z,8.10
2023-01-19T17:20:22.142Z,8.08
2023-01-19T17:22:52.152Z,8.04
2023-01-19T17:25:19.195Z,7.99
2023-01-19T17:27:49.173Z,7.90
2023-01-19T17:30:16.571Z,7.87
2023-01-19T17:32:43.615Z,7.90
2023-01-19T17:35:10.709Z,7.95
2023-01-19T17:37:37.617Z,7.96
2023-01-19T17:40:04.845Z,7.92
2023-01-19T17:42:31.816Z,7.84
2023-01-19T17:45:01.625Z,7.81
2023-01-19T17:47:28.574Z,7.71
2023-01-19T17:49:55.721Z,7.65
2023-01-19T17:52:22.802Z,7.61
2023-01-19T17:54:49.701Z,7.50
2023-01-19T17:57:18.895Z,7.48
2023-01-19T17:59:46.860Z,7.48
2023-01-19T18:02:14.213Z,7.45
2023-01-19T18:04:44.056Z,7.50
2023-01-19T18:07:10.911Z,7.57
2023-01-19T18:09:37.797Z,7.61
2023-01-19T18:12:04.927Z,7.68
2023-01-19T18:14:31.851Z,7.76
2023-01-19T18:16:58.809Z,7.75
2023-01-19T18:19:25.755Z,7.67
2023-01-19T18:21:52.668Z,7.76
2023-01-19T18:24:19.770Z,7.77
2023-01-19T18:26:46.637Z,7.81
2023-01-19T18:29:16.253Z,7.80
2023-01-19T18:31:43.528Z,7.70
2023-01-19T18:34:10.570Z,7.74
2023-01-19T18:36:37.495Z,7.76
2023-01-19T18:39:04.655Z,7.75
2023-01-19T18:41:31.528Z,7.79
2023-01-19T18:44:01.541Z,7.88
2023-01-19T18:46:28.635Z,7.90
2023-01-19T18:48:55.645Z,7.85
2023-01-19T18:51:22.689Z,7.87
2023-01-19T18:53:49.726Z,7.77
2023-01-19T18:56:16.858Z,7.77
2023-01-19T18:58:46.981Z,7.83
2023-01-19T19:01:23.926Z,7.83
2023-01-19T19:03:52.038Z,7.67
2023-01-19T19:06:19.280Z,7.26
2023-01-19T19:08:46.950Z,7.11
2023-01-19T19:11:14.284Z,7.24
2023-01-19T19:13:41.670Z,7.19
2023-01-19T19:16:11.440Z,7.08
2023-01-19T19:18:39.431Z,7.11
2023-01-19T19:21:11.570Z,7.17
2023-01-19T19:23:39.058Z,7.15
2023-01-19T19:26:10.820Z,7.09
2023-01-19T19:28:39.668Z,7.04
2023-01-19T19:31:09.825Z,7.02
2023-01-19T19:33:40.774Z,6.97
2023-01-19T19:36:09.209Z,7.00
2023-01-19T19:38:36.727Z,6.45
2023-01-19T19:41:08.500Z,6.23
2023-01-19T19:43:39.219Z,6.24
2023-01-19T19:46:09.280Z,6.38
2023-01-19T19:48:39.232Z,6.41
2023-01-19T19:51:17.426Z,6.48
2023-01-19T19:53:46.042Z,6.43
2023-01-19T19:56:15.463Z,6.45
2023-01-19T19:58:43.412Z,6.41
2023-01-19T20:01:16.986Z,6.28
2023-01-19T20:03:44.448Z,6.27
2023-01-19T20:06:17.652Z,6.28
2023-01-19T20:08:44.811Z,6.29
2023-01-19T20:11:14.545Z,6.30
2023-01-19T20:13:43.393Z,6.25
2023-01-19T20:16:12.861Z,6.38
2023-01-19T20:18:44.626Z,6.44
2023-01-19T20:21:17.664Z,6.41
2023-01-19T20:23:45.832Z,6.45
2023-01-19T20:26:14.934Z,6.45
2023-01-19T20:28:42.296Z,6.40
2023-01-19T20:31:14.113Z,6.43
2023-01-19T20:33:41.605Z,6.42
2023-01-19T20:36:09.896Z,6.31
2023-01-19T20:38:38.157Z,5.79
2023-01-19T20:41:05.529Z,5.89
2023-01-19T20:43:32.758Z,6.05
2023-01-19T20:45:59.730Z,6.08
2023-01-19T20:48:27.147Z,6.09
2023-01-19T20:51:02.193Z,6.11
2023-01-19T20:53:29.975Z,6.14
2023-01-19T20:55:56.976Z,6.20
2023-01-19T20:58:24.274Z,5.93
2023-01-19T21:00:51.379Z,5.81
2023-01-19T21:03:18.225Z,5.66
2023-01-19T21:05:47.451Z,5.73
2023-01-19T21:08:15.114Z,5.81
2023-01-19T21:10:43.124Z,5.85
2023-01-19T21:13:09.921Z,5.90
2023-01-19T21:15:36.983Z,5.96
2023-01-19T21:18:04.064Z,6.04
2023-01-19T21:20:31.171Z,6.01
2023-01-19T21:22:58.120Z,6.04
2023-01-19T21:25:25.273Z,6.02
2023-01-19T21:27:52.309Z,6.02
2023-01-19T21:30:19.405Z,6.05
2023-01-19T21:32:46.288Z,5.82
2023-01-19T21:35:13.417Z,5.66
2023-01-19T21:37:40.506Z,5.18
2023-01-19T21:40:08.029Z,5.27
2023-01-19T21:42:35.368Z,5.33
2023-01-19T21:45:02.279Z,5.46
2023-01-19T21:47:29.274Z,5.48
2023-01-19T21:49:56.342Z,5.55
2023-01-19T21:52:23.183Z,5.50
2023-01-19T21:54:50.255Z,5.51
2023-01-19T21:57:17.136Z,5.47
2023-01-19T21:59:44.191Z,5.43
2023-01-19T22:02:12.564Z,5.44
2023-01-19T22:04:39.751Z,5.37
2023-01-19T22:07:06.948Z,5.28
2023-01-19T22:09:34.908Z,5.29
2023-01-19T22:12:02.284Z,5.32
2023-01-19T22:14:29.477Z,5.36
2023-01-19T22:16:56.643Z,5.06
2023-01-19T22:19:23.758Z,4.84
2023-01-19T22:21:50.687Z,4.86
2023-01-19T22:24:17.683Z,4.63
2023-01-19T22:26:44.749Z,4.67
2023-01-19T22:29:12.087Z,4.61
2023-01-19T22:31:40.228Z,4.66
2023-01-19T22:34:07.269Z,4.55
2023-01-19T22:36:34.173Z,4.44
2023-01-19T22:39:06.121Z,4.45
2023-01-19T22:41:35.765Z,4.47
2023-01-19T22:44:06.087Z,4.55
2023-01-19T22:46:35.842Z,4.68
2023-01-19T22:49:03.329Z,4.71
2023-01-19T22:51:31.711Z,4.60
2023-01-19T22:53:58.889Z,4.49
2023-01-19T22:56:27.693Z,4.17
2023-01-19T22:58:56.620Z,4.25
2023-01-19T23:01:26.383Z,4.47
2023-01-19T23:03:54.617Z,4.62
2023-01-19T23:06:27.177Z,4.62
2023-01-19T23:08:59.656Z,4.42
2023-01-19T23:11:35.706Z,4.42
2023-01-19T23:14:04.027Z,4.55
2023-01-19T23:16:31.175Z,4.57
2023-01-19T23:18:58.794Z,4.35
2023-01-19T23:21:28.015Z,4.32
2023-01-19T23:23:56.904Z,4.48
2023-01-19T23:26:24.927Z,4.37
2023-01-19T23:28:56.375Z,4.37
2023-01-19T23:31:26.074Z,4.56
2023-01-19T23:33:55.795Z,4.70
2023-01-19T23:36:26.694Z,4.72
2023-01-19T23:39:07.779Z,4.72
2023-01-19T23:41:34.746Z,4.31
2023-01-19T23:44:02.353Z,4.31
2023-01-19T23:46:29.771Z,3.98
2023-01-19T23:48:57.524Z,3.75
2023-01-19T23:51:29.763Z,3.96
2023-01-19T23:53:58.188Z,3.84
2023-01-19T23:56:27.986Z,4.07
2023-01-19T23:58:59.933Z,4.23
